Aspen Park, Colorado
Current Conditions -  °F | °C
As of 11:53 AM on Saturday 25 Oct 2014 (Local Time) from KAPA Reporting Station
Clear Clear  
Wind Chill: 72°   Ceiling: Unl
Heat Index: 72°   Visibility: 10mi
Dew Point: 22°   Wind: 12mph
Humidity: 15%   Direction: 150°SSE
Pressure: 30.24"   Gusts: NA
Location:  39.4975°N, 105.289°W
Report Text: KAPA 251753Z 15010KT 10SM CLR 22/M06 A3024 RMK AO2 SLP188 T02221056 10222 20039 58015
Loading
Personal Weather Stations






























Interactive Weather Map
Tropical Storm Tracking
New forecast layout! Learn more

10-Day Weather Forecast

Advertisements
Track Severe Weather on mobile